Time;durP1;ratioP1;P1;durP2;ratioP2;P2;SDS_P1;SDS_P2;PMS_P1;PMS_P2;Temp;Humidity;BMP_temperature;BMP_pressure;BME280_temperature;BME280_humidity;BME280_pressure;Samples;Min_cycle;Max_cycle;Signal;HPM_P1;HPM_P2
2021/07/11 00:00:27;;;;;;;14.30;10.55;;;18.70;99.90;;;;;;5091798;28;20047;-78
2021/07/11 00:02:53;;;;;;;18.65;10.90;;;18.70;99.90;;;;;;5091320;28;20028;-78
2021/07/11 00:05:20;;;;;;;12.27;10.18;;;18.70;99.90;;;;;;5091411;28;20032;-78
2021/07/11 00:07:46;;;;;;;14.15;10.95;;;18.70;99.90;;;;;;5089814;28;20449;-78
2021/07/11 00:10:15;;;;;;;16.90;11.25;;;18.70;99.90;;;;;;5090930;28;20043;-76
2021/07/11 00:12:42;;;;;;;13.90;10.55;;;18.60;99.90;;;;;;5090854;28;20373;-79
2021/07/11 00:15:11;;;;;;;15.02;10.70;;;18.60;99.90;;;;;;5090508;28;20356;-77
2021/07/11 00:17:37;;;;;;;15.30;10.88;;;18.60;99.90;;;;;;5090626;28;20062;-78
2021/07/11 00:20:07;;;;;;;21.80;10.60;;;18.60;99.90;;;;;;5089939;28;20066;-78
2021/07/11 00:22:33;;;;;;;14.48;10.73;;;18.60;99.90;;;;;;5090050;28;20035;-77
2021/07/11 00:24:58;;;;;;;17.27;11.40;;;18.60;99.90;;;;;;5091031;28;20020;-77
2021/07/11 00:27:24;;;;;;;12.77;10.25;;;18.70;99.90;;;;;;5091472;28;20368;-77
2021/07/11 00:29:49;;;;;;;14.23;10.70;;;18.70;99.90;;;;;;5091012;28;20024;-78
2021/07/11 00:32:15;;;;;;;14.32;10.93;;;18.70;99.90;;;;;;5089654;28;20441;-77
2021/07/11 00:34:41;;;;;;;13.65;10.73;;;18.70;99.90;;;;;;5090765;28;20039;-78
2021/07/11 00:37:06;;;;;;;16.75;11.35;;;18.70;99.90;;;;;;5090847;28;20016;-78
2021/07/11 00:39:32;;;;;;;18.13;11.57;;;18.70;99.90;;;;;;5091121;28;20052;-78
2021/07/11 00:41:57;;;;;;;16.20;11.52;;;18.70;99.90;;;;;;5090644;28;20043;-78
2021/07/11 00:44:23;;;;;;;15.25;11.23;;;18.70;99.90;;;;;;5089778;28;20043;-78
2021/07/11 00:46:49;;;;;;;16.30;10.98;;;18.70;99.90;;;;;;5090990;28;20112;-78
2021/07/11 00:49:15;;;;;;;16.30;12.13;;;18.70;99.90;;;;;;5089628;28;20339;-78
2021/07/11 00:51:41;;;;;;;13.68;10.88;;;18.70;99.90;;;;;;5090023;28;20055;-78
2021/07/11 00:54:07;;;;;;;16.77;11.98;;;18.70;99.90;;;;;;5091170;28;20350;-79
2021/07/11 00:56:33;;;;;;;15.35;11.75;;;18.70;99.90;;;;;;5090756;28;20074;-78
2021/07/11 00:58:59;;;;;;;17.17;11.40;;;18.70;99.90;;;;;;5089669;28;20028;-78
2021/07/11 01:01:40;;;;;;;17.90;11.55;;;18.70;99.90;;;;;;5089354;28;20059;-79
2021/07/11 01:04:29;;;;;;;16.85;11.45;;;18.70;99.90;;;;;;5090410;28;20093;-78
2021/07/11 01:07:00;;;;;;;16.73;11.48;;;18.60;99.90;;;;;;5089553;28;20111;-77
2021/07/11 01:09:34;;;;;;;15.98;11.98;;;18.70;99.90;;;;;;5090816;28;20039;-77
2021/07/11 01:12:06;;;;;;;16.60;11.77;;;18.60;99.90;;;;;;5072621;28;20115;-78
2021/07/11 01:14:34;;;;;;;16.25;11.57;;;18.70;99.90;;;;;;5090374;28;20035;-78
2021/07/11 01:17:04;;;;;;;14.18;11.13;;;18.70;99.90;;;;;;5090574;28;20629;-78
2021/07/11 01:19:47;;;;;;;15.93;12.32;;;18.70;99.90;;;;;;5090253;28;20063;-77
2021/07/11 01:22:14;;;;;;;19.45;11.45;;;18.70;99.90;;;;;;5089282;28;20032;-80
2021/07/11 01:24:50;;;;;;;18.63;12.40;;;18.60;99.90;;;;;;5088973;28;20093;-79
2021/07/11 01:27:18;;;;;;;14.40;11.50;;;18.60;99.90;;;;;;5090596;28;20047;-79
2021/07/11 01:29:45;;;;;;;15.93;12.77;;;18.60;99.90;;;;;;5093057;28;20338;-78
2021/07/11 01:32:11;;;;;;;22.30;12.80;;;18.60;99.90;;;;;;5093146;28;21004;-78
2021/07/11 01:34:38;;;;;;;15.73;12.20;;;18.50;99.90;;;;;;5094151;28;20059;-79
2021/07/11 01:37:03;;;;;;;17.30;11.52;;;18.50;99.90;;;;;;5131921;27;20031;-79
2021/07/11 01:39:30;;;;;;;24.20;12.70;;;18.60;99.90;;;;;;5116798;27;20099;-80
2021/07/11 01:41:57;;;;;;;18.20;12.85;;;18.60;99.90;;;;;;5135031;27;20039;-78
2021/07/11 01:44:26;;;;;;;16.45;11.93;;;18.50;99.90;;;;;;5135090;27;20368;-78
2021/07/11 01:46:51;;;;;;;19.83;12.50;;;18.50;99.90;;;;;;5135498;27;20122;-78
2021/07/11 01:49:17;;;;;;;23.25;12.55;;;18.50;99.90;;;;;;5136741;27;20447;-78
2021/07/11 01:51:45;;;;;;;16.20;12.75;;;18.50;99.90;;;;;;5134878;27;20744;-78
2021/07/11 01:54:11;;;;;;;16.25;12.05;;;18.60;99.90;;;;;;5135147;27;20094;-77
2021/07/11 01:56:39;;;;;;;19.08;12.23;;;18.60;99.90;;;;;;5134574;27;20118;-77
2021/07/11 01:59:05;;;;;;;14.10;11.23;;;18.60;99.90;;;;;;5134777;27;20031;-77
2021/07/11 02:01:31;;;;;;;17.80;12.10;;;18.60;99.90;;;;;;5134651;27;20186;-78
2021/07/11 02:03:57;;;;;;;19.02;11.70;;;18.60;99.90;;;;;;5134463;27;20035;-77
2021/07/11 02:06:22;;;;;;;15.70;11.40;;;18.50;99.90;;;;;;5134831;27;20016;-78
2021/07/11 02:08:48;;;;;;;15.73;12.18;;;18.60;99.90;;;;;;5134472;27;20467;-78
2021/07/11 02:11:14;;;;;;;18.85;11.50;;;18.50;99.90;;;;;;5134309;27;20031;-76
2021/07/11 02:13:49;;;;;;;17.00;11.52;;;18.50;99.90;;;;;;5134307;27;20046;-77
2021/07/11 02:16:23;;;;;;;17.17;11.93;;;18.50;99.90;;;;;;5134083;27;20065;-77
2021/07/11 02:18:50;;;;;;;15.68;11.60;;;18.50;99.90;;;;;;5134065;27;20046;-76
2021/07/11 02:21:20;;;;;;;18.13;12.60;;;18.50;99.90;;;;;;5134433;27;20019;-79
2021/07/11 02:23:46;;;;;;;15.85;11.95;;;18.50;99.90;;;;;;5133892;27;20114;-78
2021/07/11 02:26:12;;;;;;;16.65;12.32;;;18.70;99.90;;;;;;5133872;27;20540;-77
2021/07/11 02:28:39;;;;;;;17.05;12.40;;;18.60;99.90;;;;;;5133977;27;20114;-77
2021/07/11 02:31:11;;;;;;;15.63;12.02;;;18.60;99.90;;;;;;5133867;27;20118;-78
2021/07/11 02:33:37;;;;;;;14.43;11.68;;;18.50;99.90;;;;;;5134227;27;20023;-77
2021/07/11 02:36:09;;;;;;;20.25;12.77;;;18.50;99.90;;;;;;5134425;27;20065;-77
2021/07/11 02:39:04;;;;;;;20.20;12.43;;;18.50;99.90;;;;;;5133973;27;20035;-76
2021/07/11 02:41:31;;;;;;;21.42;11.60;;;18.50;99.90;;;;;;5134203;27;20043;-77
2021/07/11 02:43:59;;;;;;;20.45;13.40;;;18.50;99.90;;;;;;5115491;27;20054;-77
2021/07/11 02:46:30;;;;;;;16.67;13.25;;;18.40;99.90;;;;;;5115663;27;20104;-77
2021/07/11 02:48:57;;;;;;;17.63;12.05;;;18.40;99.90;;;;;;5133353;27;20100;-78
2021/07/11 02:51:25;;;;;;;16.27;12.07;;;18.40;99.90;;;;;;5134060;27;20466;-78
2021/07/11 02:53:55;;;;;;;17.77;12.25;;;18.30;99.90;;;;;;5115233;27;20023;-80
2021/07/11 02:56:22;;;;;;;18.95;12.45;;;18.30;99.90;;;;;;5133606;27;20035;-80
2021/07/11 02:58:51;;;;;;;18.77;12.77;;;18.30;99.90;;;;;;5133226;27;20364;-79
2021/07/11 03:01:18;;;;;;;16.08;12.35;;;18.30;99.90;;;;;;5133242;27;20019;-79
2021/07/11 03:03:44;;;;;;;18.20;12.63;;;18.30;99.90;;;;;;5133193;27;20488;-79
2021/07/11 03:06:10;;;;;;;15.07;11.55;;;18.20;99.90;;;;;;5133798;27;20066;-78
2021/07/11 03:08:36;;;;;;;16.60;12.90;;;18.20;99.90;;;;;;5115089;27;20546;-78
2021/07/11 03:11:03;;;;;;;18.35;12.55;;;18.20;99.90;;;;;;5133016;27;20070;-79
2021/07/11 03:13:33;;;;;;;17.27;12.35;;;18.10;99.90;;;;;;5133416;27;20073;-80
2021/07/11 03:15:59;;;;;;;15.23;11.82;;;18.10;99.90;;;;;;5114097;27;20027;-80
2021/07/11 03:18:27;;;;;;;17.27;12.98;;;18.00;99.90;;;;;;5133435;27;20026;-79
2021/07/11 03:20:54;;;;;;;18.52;12.07;;;18.00;99.90;;;;;;5133033;27;20118;-78
2021/07/11 03:23:21;;;;;;;16.05;12.77;;;18.00;99.90;;;;;;5133031;27;20065;-78
2021/07/11 03:25:49;;;;;;;16.42;12.38;;;18.00;99.90;;;;;;5132694;27;20031;-79
2021/07/11 03:28:15;;;;;;;;;;;17.90;99.90;;;;;;5132990;27;20050;-77
2021/07/11 03:30:43;;;;;;;18.08;12.68;;;17.90;99.90;;;;;;5132484;27;20009;-76
2021/07/11 03:33:12;;;;;;;19.58;13.07;;;17.90;99.90;;;;;;5133308;27;20098;-77
2021/07/11 03:35:43;;;;;;;19.67;12.60;;;17.90;99.90;;;;;;5132664;27;20031;-77
2021/07/11 03:38:13;;;;;;;22.30;13.15;;;17.90;99.90;;;;;;5132497;27;20237;-78
2021/07/11 03:40:44;;;;;;;18.83;12.80;;;17.90;99.90;;;;;;5132494;27;20452;-77
2021/07/11 03:43:13;;;;;;;19.08;12.48;;;17.90;99.90;;;;;;5114138;27;20493;-77
2021/07/11 03:45:41;;;;;;;17.83;12.77;;;17.80;99.90;;;;;;5132350;27;20023;-76
2021/07/11 03:48:13;;;;;;;17.17;13.52;;;17.80;99.90;;;;;;5133560;27;20027;-77
2021/07/11 03:50:44;;;;;;;21.90;14.00;;;17.80;99.90;;;;;;5131974;27;20027;-77
2021/07/11 03:53:11;;;;;;;16.42;13.60;;;17.80;99.90;;;;;;5132254;27;20031;-77
2021/07/11 03:55:38;;;;;;;21.55;14.27;;;17.80;99.90;;;;;;5132275;27;20114;-76
2021/07/11 03:58:04;;;;;;;18.55;14.25;;;17.80;99.90;;;;;;5133432;27;20471;-78
2021/07/11 04:00:30;;;;;;;17.58;13.32;;;17.80;99.90;;;;;;5136618;27;20436;-77
2021/07/11 04:02:59;;;;;;;19.15;13.48;;;17.80;99.90;;;;;;5132198;27;20062;-77
2021/07/11 04:05:29;;;;;;;19.58;14.18;;;17.80;99.90;;;;;;5131914;27;20037;-77
2021/07/11 04:07:57;;;;;;;16.77;12.73;;;17.70;99.90;;;;;;5132364;27;20055;-77
2021/07/11 04:10:25;;;;;;;18.27;13.45;;;17.70;99.90;;;;;;5132055;27;20135;-77
2021/07/11 04:12:51;;;;;;;19.02;13.13;;;17.70;99.90;;;;;;5132136;27;20015;-78
2021/07/11 04:15:17;;;;;;;17.50;13.88;;;17.70;99.90;;;;;;5132325;27;20019;-77
2021/07/11 04:17:47;;;;;;;21.48;13.25;;;17.80;99.90;;;;;;5131989;27;20345;-78
2021/07/11 04:20:15;;;;;;;25.27;14.20;;;17.70;99.90;;;;;;5131870;27;20051;-77
2021/07/11 04:22:42;;;;;;;17.45;13.00;;;17.80;99.90;;;;;;5131654;27;20035;-76
2021/07/11 04:25:10;;;;;;;17.42;12.35;;;17.70;99.90;;;;;;5131842;27;20023;-78
2021/07/11 04:27:37;;;;;;;16.85;13.13;;;17.70;99.90;;;;;;5113700;27;20356;-78
2021/07/11 04:30:03;;;;;;;19.45;12.93;;;17.80;99.90;;;;;;5132300;27;20027;-78
2021/07/11 04:32:29;;;;;;;23.23;13.85;;;17.80;99.90;;;;;;5113655;28;20107;-77
2021/07/11 04:34:55;;;;;;;15.68;12.65;;;17.80;99.90;;;;;;5113442;28;20039;-77
2021/07/11 04:37:20;;;;;;;17.70;13.48;;;17.80;99.90;;;;;;5113504;27;20449;-77
2021/07/11 04:39:46;;;;;;;17.05;13.30;;;17.90;99.90;;;;;;5131197;27;20043;-78
2021/07/11 04:42:12;;;;;;;18.17;12.43;;;17.90;99.90;;;;;;5132292;28;20027;-78
2021/07/11 04:44:44;;;;;;;18.90;13.27;;;17.90;99.90;;;;;;5131703;28;20031;-77
2021/07/11 04:47:10;;;;;;;15.77;12.75;;;17.90;99.90;;;;;;5131631;28;20473;-77
2021/07/11 04:49:35;;;;;;;23.52;13.25;;;18.00;99.90;;;;;;5131382;28;20042;-77
2021/07/11 04:52:03;;;;;;;18.73;13.70;;;18.00;99.90;;;;;;5131538;28;20035;-79
2021/07/11 04:54:29;;;;;;;20.27;14.07;;;18.00;99.90;;;;;;5131923;28;20042;-77
2021/07/11 04:56:54;;;;;;;19.90;13.65;;;18.00;99.90;;;;;;5131620;28;20456;-77
2021/07/11 04:59:20;;;;;;;19.17;13.23;;;18.00;99.90;;;;;;5131754;28;20528;-77
2021/07/11 05:01:46;;;;;;;18.02;13.48;;;18.10;99.90;;;;;;5112918;28;20050;-77
2021/07/11 05:04:12;;;;;;;22.45;15.23;;;18.10;99.90;;;;;;5133584;27;20055;-77
2021/07/11 05:06:37;;;;;;;20.60;16.05;;;18.20;99.90;;;;;;5117629;27;20035;-79
2021/07/11 05:09:04;;;;;;;21.58;15.68;;;18.20;99.90;;;;;;5135985;27;20015;-78
2021/07/11 05:11:30;;;;;;;23.38;17.17;;;18.30;99.90;;;;;;5117359;27;20517;-79
2021/07/11 05:13:56;;;;;;;23.27;17.58;;;18.40;99.90;;;;;;5135435;27;20134;-79
2021/07/11 05:16:22;;;;;;;24.58;17.38;;;18.50;99.90;;;;;;5135212;27;20098;-79
2021/07/11 05:18:47;;;;;;;23.65;17.52;;;18.50;99.90;;;;;;5135311;27;20023;-77
2021/07/11 05:21:13;;;;;;;26.00;18.65;;;18.50;99.90;;;;;;5117611;27;20023;-77
2021/07/11 05:23:38;;;;;;;26.38;17.40;;;18.70;99.90;;;;;;5135475;27;20031;-77
2021/07/11 05:26:04;;;;;;;23.35;17.05;;;18.70;99.90;;;;;;5117173;27;20154;-77
2021/07/11 05:28:30;;;;;;;23.35;16.42;;;18.70;99.90;;;;;;5135536;27;20039;-76
2021/07/11 05:30:55;;;;;;;20.10;15.85;;;18.70;99.90;;;;;;5134959;27;20077;-76
2021/07/11 05:33:21;;;;;;;28.30;17.70;;;18.80;99.90;;;;;;5135722;27;20513;-78
2021/07/11 05:35:46;;;;;;;26.05;17.02;;;18.90;99.90;;;;;;5117101;27;20114;-76
2021/07/11 05:38:12;;;;;;;22.95;17.05;;;18.90;99.90;;;;;;5134927;27;20031;-78
2021/07/11 05:40:39;;;;;;;21.17;16.15;;;19.00;99.90;;;;;;5134918;27;20542;-77
2021/07/11 05:43:04;;;;;;;26.08;17.20;;;19.10;99.90;;;;;;5134900;27;20307;-78
2021/07/11 05:45:30;;;;;;;21.65;16.42;;;19.10;99.90;;;;;;5135120;27;20019;-78
2021/07/11 05:47:56;;;;;;;22.48;16.85;;;19.20;99.90;;;;;;5134431;27;20030;-79
2021/07/11 05:50:22;;;;;;;22.20;16.00;;;19.20;99.90;;;;;;5134535;27;20472;-77
2021/07/11 05:52:48;;;;;;;22.52;17.08;;;19.30;99.90;;;;;;5134517;27;20611;-79
2021/07/11 05:55:13;;;;;;;26.67;17.05;;;19.40;99.90;;;;;;5116531;27;20115;-79
2021/07/11 05:57:39;;;;;;;22.55;16.60;;;19.40;99.90;;;;;;5116012;27;20027;-77
2021/07/11 06:00:07;;;;;;;23.48;15.88;;;19.50;99.90;;;;;;5134845;27;20106;-79
2021/07/11 06:02:32;;;;;;;24.00;16.73;;;19.60;99.90;;;;;;5134592;27;20096;-78
2021/07/11 06:04:58;;;;;;;25.80;16.45;;;19.70;99.90;;;;;;5134270;27;20027;-79
2021/07/11 06:07:23;;;;;;;26.55;17.13;;;19.70;99.90;;;;;;5134376;27;20449;-79
2021/07/11 06:09:49;;;;;;;21.45;16.38;;;19.80;99.90;;;;;;5134097;27;20083;-79
2021/07/11 06:12:16;;;;;;;20.58;15.93;;;19.80;99.90;;;;;;5136431;27;20038;-78
2021/07/11 06:14:42;;;;;;;21.00;15.70;;;19.80;99.90;;;;;;5133955;27;20034;-76
2021/07/11 06:17:08;;;;;;;22.75;14.80;;;19.90;99.90;;;;;;5115953;27;20034;-78
2021/07/11 06:19:34;;;;;;;20.30;14.45;;;20.00;99.90;;;;;;5134370;27;20058;-77
2021/07/11 06:21:59;;;;;;;23.33;14.77;;;20.00;99.90;;;;;;5134212;27;20031;-76
2021/07/11 06:24:25;;;;;;;21.77;14.95;;;20.10;99.90;;;;;;5116543;27;20042;-75
2021/07/11 06:26:51;;;;;;;22.77;15.50;;;20.20;99.90;;;;;;5134027;27;20037;-76
2021/07/11 06:29:16;;;;;;;20.40;14.63;;;20.20;99.90;;;;;;5133810;27;20038;-77
2021/07/11 06:31:42;;;;;;;21.33;15.02;;;20.30;99.90;;;;;;5133632;27;20468;-76
2021/07/11 06:34:08;;;;;;;18.98;14.25;;;20.30;99.90;;;;;;5115395;27;20027;-76
2021/07/11 06:36:33;;;;;;;22.00;14.80;;;20.40;99.90;;;;;;5133843;27;20109;-74
2021/07/11 06:39:00;;;;;;;19.25;14.43;;;20.50;99.90;;;;;;5134101;27;20030;-75
2021/07/11 06:41:26;;;;;;;23.75;15.07;;;20.50;99.90;;;;;;5133403;27;20047;-74
2021/07/11 06:43:52;;;;;;;20.30;14.50;;;20.60;99.90;;;;;;5133663;27;20051;-75
2021/07/11 06:46:18;;;;;;;20.80;13.57;;;20.70;99.90;;;;;;5133566;27;20126;-76
2021/07/11 06:48:43;;;;;;;20.85;15.15;;;20.70;99.90;;;;;;5133657;27;20080;-74
2021/07/11 06:51:09;;;;;;;22.02;15.10;;;20.80;99.90;;;;;;5116061;27;20114;-79
2021/07/11 06:53:35;;;;;;;17.85;14.15;;;20.90;99.90;;;;;;5135694;27;20023;-86
2021/07/11 06:56:02;;;;;;;22.77;15.93;;;20.90;99.90;;;;;;5135487;27;20035;-82
2021/07/11 06:58:28;;;;;;;22.70;15.30;;;21.00;99.90;;;;;;5134565;27;20088;-85
2021/07/11 07:00:53;;;;;;;19.70;15.13;;;21.00;99.90;;;;;;5135075;27;20031;-93
2021/07/11 07:03:20;;;;;;;26.63;16.33;;;21.20;99.90;;;;;;5136411;27;20030;-96
2021/07/11 07:05:47;;;;;;;21.70;15.30;;;21.20;99.90;;;;;;5136125;27;20043;-91
2021/07/11 07:08:14;;;;;;;22.85;15.15;;;21.30;99.90;;;;;;5115459;27;20027;-84
2021/07/11 07:10:40;;;;;;;21.00;15.48;;;21.40;99.90;;;;;;5117361;27;20153;-89
2021/07/11 07:13:05;;;;;;;20.92;14.98;;;21.50;99.50;;;;;;5117124;27;20396;-88
2021/07/11 07:15:31;;;;;;;20.50;13.98;;;21.60;99.70;;;;;;5117372;27;20024;-79
2021/07/11 07:17:57;;;;;;;18.77;13.02;;;21.60;99.30;;;;;;5132847;27;20035;-79
2021/07/11 07:20:22;;;;;;;18.17;13.85;;;21.70;99.30;;;;;;5132784;27;20361;-77
2021/07/11 07:22:48;;;;;;;17.40;13.30;;;21.80;99.30;;;;;;5114583;27;20096;-77
2021/07/11 07:25:16;;;;;;;18.40;13.07;;;21.90;99.10;;;;;;5132641;27;20023;-76
2021/07/11 07:27:43;;;;;;;15.27;11.45;;;22.00;98.90;;;;;;5131861;27;20087;-77
2021/07/11 07:30:11;;;;;;;16.58;13.32;;;22.00;98.70;;;;;;5133092;27;20019;-77
2021/07/11 07:32:37;;;;;;;16.13;12.27;;;22.10;98.50;;;;;;5132583;27;20039;-77
2021/07/11 07:35:04;;;;;;;20.30;12.45;;;22.20;98.30;;;;;;5114371;27;20360;-79
2021/07/11 07:37:30;;;;;;;21.95;13.00;;;22.30;98.50;;;;;;5132504;27;20027;-76
2021/07/11 07:39:56;;;;;;;16.23;11.73;;;22.40;97.90;;;;;;5132603;27;20041;-82
2021/07/11 07:42:22;;;;;;;18.58;11.93;;;22.40;98.30;;;;;;5133059;27;20342;-77
2021/07/11 07:44:48;;;;;;;19.38;12.88;;;22.60;98.20;;;;;;5114196;27;20023;-78
2021/07/11 07:50:36;;;;;;;15.23;11.70;;;23.00;97.20;;;;;;5109342;27;20425;-75
2021/07/11 07:53:02;;;;;;;16.42;12.20;;;23.10;97.60;;;;;;5111690;28;20024;-79
2021/07/11 07:55:29;;;;;;;16.95;11.43;;;23.50;97.00;;;;;;5111431;28;20027;-77
2021/07/11 08:01:17;;;;;;;14.55;10.68;;;24.40;95.60;;;;;;5098268;28;20069;-78
2021/07/11 08:03:43;;;;;;;16.48;10.82;;;24.80;94.90;;;;;;5111644;28;20031;-71
2021/07/11 08:06:09;;;;;;;13.70;9.82;;;25.00;95.20;;;;;;5111680;28;20022;-71
2021/07/11 08:08:34;;;;;;;15.63;10.57;;;25.40;94.60;;;;;;5111434;28;20441;-72
2021/07/11 08:11:00;;;;;;;13.40;10.73;;;25.70;94.20;;;;;;5093262;28;20046;-83
2021/07/11 08:13:26;;;;;;;20.27;11.75;;;26.50;93.10;;;;;;5111540;28;20039;-76
2021/07/11 08:15:52;;;;;;;12.52;10.15;;;26.90;92.50;;;;;;5111430;28;20408;-77
2021/07/11 08:18:18;;;;;;;15.52;9.93;;;27.40;92.10;;;;;;5111933;28;20031;-82
2021/07/11 08:20:44;;;;;;;13.80;10.23;;;28.00;92.10;;;;;;5111545;28;20612;-79
2021/07/11 08:23:09;;;;;;;16.88;8.23;;;28.60;89.90;;;;;;5111877;28;20020;-79
2021/07/11 08:25:35;;;;;;;10.57;8.52;;;28.60;87.10;;;;;;5093382;28;20467;-79
2021/07/11 08:28:00;;;;;;;18.45;11.65;;;29.20;86.50;;;;;;5093167;28;20024;-81
2021/07/11 08:30:26;;;;;;;11.77;8.20;;;29.10;85.50;;;;;;5092237;28;20123;-82
2021/07/11 08:32:52;;;;;;;10.98;8.10;;;29.50;85.70;;;;;;5091255;28;20070;-82
2021/07/11 08:35:18;;;;;;;11.38;8.48;;;30.10;84.00;;;;;;5090770;28;20063;-82
2021/07/11 08:37:43;;;;;;;11.25;8.27;;;30.20;85.00;;;;;;5089556;28;20107;-81
2021/07/11 08:40:11;;;;;;;12.20;8.02;;;30.80;83.70;;;;;;5090531;28;20043;-81
2021/07/11 08:42:41;;;;;;;12.35;8.15;;;31.50;78.20;;;;;;5090913;28;20051;-81
2021/07/11 08:45:10;;;;;;;10.30;8.00;;;31.90;79.80;;;;;;5091340;28;20084;-80
2021/07/11 08:47:37;;;;;;;12.85;8.68;;;31.80;75.90;;;;;;5090771;28;20032;-81
2021/07/11 08:50:05;;;;;;;12.52;7.30;;;31.90;75.10;;;;;;5089715;28;20043;-80
2021/07/11 08:52:31;;;;;;;9.02;8.10;;;32.30;74.00;;;;;;5090729;28;20036;-80
2021/07/11 08:54:57;;;;;;;9.98;7.75;;;32.20;72.90;;;;;;5090577;28;20057;-79
2021/07/11 08:57:22;;;;;;;12.00;7.70;;;32.20;73.60;;;;;;5091049;28;20322;-81
2021/07/11 08:59:49;;;;;;;8.15;7.25;;;32.40;70.40;;;;;;5090501;28;20483;-81
2021/07/11 09:02:15;;;;;;;7.45;6.40;;;32.60;70.80;;;;;;5090673;28;20028;-80
2021/07/11 09:04:46;;;;;;;9.60;6.75;;;32.80;67.60;;;;;;5090805;28;20040;-81
2021/07/11 09:07:20;;;;;;;9.10;6.32;;;32.50;70.10;;;;;;5090709;28;20066;-80
2021/07/11 09:09:53;;;;;;;7.95;7.00;;;32.40;70.40;;;;;;5090128;28;20040;-81
2021/07/11 09:12:19;;;;;;;14.52;7.80;;;32.90;69.10;;;;;;5090758;28;20128;-82
2021/07/11 09:14:45;;;;;;;8.10;7.30;;;32.90;67.90;;;;;;5090261;28;20478;-80
2021/07/11 09:17:13;;;;;;;8.07;7.07;;;32.60;67.10;;;;;;5090371;28;20024;-80
2021/07/11 09:19:45;;;;;;;12.32;7.20;;;32.90;68.30;;;;;;5090564;28;20052;-79
2021/07/11 09:22:15;;;;;;;8.73;7.57;;;32.70;66.20;;;;;;5089355;28;20035;-80
2021/07/11 09:24:55;;;;;;;9.18;6.95;;;32.20;67.10;;;;;;5089533;28;20080;-81
2021/07/11 09:27:23;;;;;;;9.88;6.53;;;32.20;67.60;;;;;;5090866;28;20085;-81
2021/07/11 09:29:49;;;;;;;7.22;6.53;;;32.00;66.90;;;;;;5090490;28;20028;-80
2021/07/11 09:32:35;;;;;;;7.85;6.85;;;31.30;68.60;;;;;;5090271;28;20032;-79
2021/07/11 09:35:10;;;;;;;8.07;7.22;;;30.90;67.70;;;;;;5090429;28;20024;-79
2021/07/11 09:37:38;;;;;;;9.23;6.80;;;30.00;68.90;;;;;;5090269;28;20032;-80
2021/07/11 09:40:05;;;;;;;8.50;6.78;;;29.80;70.00;;;;;;5090194;28;20036;-80
2021/07/11 09:42:42;;;;;;;9.80;6.80;;;29.70;71.50;;;;;;5090547;28;20031;-79
2021/07/11 09:45:19;;;;;;;9.63;6.05;;;30.20;70.70;;;;;;5090437;28;20040;-80
2021/07/11 09:47:46;;;;;;;7.20;6.35;;;30.20;69.40;;;;;;5090359;28;20647;-82
2021/07/11 09:50:16;;;;;;;9.00;7.20;;;30.00;70.20;;;;;;5074123;28;20039;-81
2021/07/11 09:52:46;;;;;;;14.27;8.38;;;29.90;71.50;;;;;;5093744;28;20106;-80
2021/07/11 09:55:18;;;;;;;13.20;8.00;;;30.30;71.40;;;;;;5092539;28;20036;-79
2021/07/11 09:57:50;;;;;;;10.60;7.43;;;29.60;70.50;;;;;;5093407;28;20047;-81
2021/07/11 10:00:25;;;;;;;9.90;7.03;;;29.60;71.00;;;;;;5094232;28;20024;-80
2021/07/11 10:02:55;;;;;;;10.98;6.78;;;29.50;72.30;;;;;;5093816;28;20420;-78
2021/07/11 10:05:21;;;;;;;13.30;7.80;;;28.70;73.20;;;;;;5093530;28;20031;-80
2021/07/11 10:07:47;;;;;;;10.18;7.50;;;28.50;75.30;;;;;;5093533;28;20176;-79
2021/07/11 10:10:15;;;;;;;11.18;7.68;;;28.20;76.70;;;;;;5093481;28;20522;-81
2021/07/11 10:12:43;;;;;;;10.90;7.47;;;28.30;76.00;;;;;;5093262;28;20403;-79
2021/07/11 10:15:12;;;;;;;10.88;7.68;;;28.30;76.10;;;;;;5094363;28;20123;-79
2021/07/11 10:17:48;;;;;;;9.02;7.15;;;28.20;76.40;;;;;;5092367;28;20130;-78
2021/07/11 10:20:16;;;;;;;9.10;7.25;;;28.10;77.90;;;;;;5093421;28;20428;-79
2021/07/11 10:22:50;;;;;;;10.40;7.63;;;28.20;77.00;;;;;;5092113;28;20028;-78
2021/07/11 10:25:19;;;;;;;7.93;6.68;;;28.30;76.50;;;;;;5091266;28;20039;-79
2021/07/11 10:27:45;;;;;;;8.90;6.57;;;28.00;76.40;;;;;;5093190;28;20614;-79
2021/07/11 10:30:11;;;;;;;14.13;8.85;;;27.80;77.90;;;;;;5093615;28;20047;-79
2021/07/11 10:32:37;;;;;;;10.70;7.35;;;27.60;78.00;;;;;;5094894;28;20024;-79
2021/07/11 10:35:13;;;;;;;9.75;7.68;;;27.40;78.30;;;;;;5092834;28;20458;-79
2021/07/11 10:37:48;;;;;;;10.75;8.02;;;27.30;78.80;;;;;;5092862;28;20093;-79
2021/07/11 10:40:17;;;;;;;9.23;8.10;;;27.20;79.90;;;;;;5092394;28;20044;-78
2021/07/11 10:42:44;;;;;;;11.30;8.57;;;27.10;80.90;;;;;;5092805;28;20044;-79
2021/07/11 10:45:12;;;;;;;10.57;8.25;;;26.90;81.70;;;;;;5093159;28;20398;-80
2021/07/11 10:47:40;;;;;;;10.82;8.93;;;27.10;81.90;;;;;;5092694;28;20085;-79
2021/07/11 10:50:30;;;;;;;14.10;8.45;;;27.20;82.00;;;;;;5092093;28;20131;-78
2021/07/11 10:52:57;;;;;;;12.55;8.93;;;27.00;83.00;;;;;;5073729;28;20042;-79
2021/07/11 10:55:24;;;;;;;13.30;8.25;;;26.90;83.50;;;;;;5092747;28;20453;-79
2021/07/11 10:57:50;;;;;;;9.82;7.78;;;26.80;83.40;;;;;;5074631;28;20024;-78
2021/07/11 11:00:28;;;;;;;10.45;8.02;;;26.70;83.00;;;;;;5092791;28;20028;-80
2021/07/11 11:02:54;;;;;;;8.68;6.80;;;26.80;83.30;;;;;;5092575;28;20032;-79
2021/07/11 11:05:25;;;;;;;11.48;8.35;;;27.00;83.40;;;;;;5092412;28;20036;-79
2021/07/11 11:07:56;;;;;;;10.95;7.50;;;27.20;82.80;;;;;;5092424;28;20496;-80
2021/07/11 11:10:33;;;;;;;11.57;7.28;;;27.30;82.00;;;;;;5092093;28;20128;-79
2021/07/11 11:13:01;;;;;;;12.27;8.35;;;27.30;81.80;;;;;;5092125;28;20024;-80
2021/07/11 11:15:43;;;;;;;9.68;8.27;;;27.10;82.30;;;;;;5091881;28;20059;-80
2021/07/11 11:18:27;;;;;;;11.85;7.70;;;27.10;82.00;;;;;;5092634;28;20048;-79
2021/07/11 11:21:07;;;;;;;12.23;8.70;;;27.00;82.80;;;;;;5092116;28;20477;-80
2021/07/11 11:23:53;;;;;;;13.93;8.48;;;27.00;83.00;;;;;;5092000;28;20225;-82
2021/07/11 11:26:24;;;;;;;14.98;8.50;;;26.90;83.30;;;;;;5092052;28;20024;-82
2021/07/11 11:28:52;;;;;;;13.57;8.38;;;26.90;83.00;;;;;;5091730;28;20433;-79
2021/07/11 11:31:22;;;;;;;11.32;7.57;;;27.20;83.40;;;;;;5092042;28;20048;-80
2021/07/11 11:34:00;;;;;;;15.77;10.00;;;27.40;83.50;;;;;;5091695;28;20084;-80
2021/07/11 11:36:42;;;;;;;10.45;7.95;;;27.30;83.80;;;;;;5092406;28;20353;-79
2021/07/11 11:39:12;;;;;;;15.65;12.00;;;27.30;83.90;;;;;;5091339;28;20036;-79
2021/07/11 11:41:39;;;;;;;15.57;8.70;;;27.40;84.30;;;;;;5091691;28;20370;-79
2021/07/11 11:44:17;;;;;;;10.33;7.13;;;27.50;83.30;;;;;;5091568;28;20040;-80
2021/07/11 11:46:45;;;;;;;9.38;7.38;;;27.70;83.20;;;;;;5091587;28;20590;-79
2021/07/11 11:49:17;;;;;;;9.02;7.18;;;27.70;82.40;;;;;;5091794;28;20042;-80
2021/07/11 11:51:48;;;;;;;9.25;6.70;;;27.80;81.30;;;;;;5091133;28;20407;-78
2021/07/11 11:54:38;;;;;;;8.52;6.78;;;28.00;81.50;;;;;;5090713;28;20350;-80
2021/07/11 11:57:06;;;;;;;10.45;6.53;;;28.00;81.50;;;;;;5073372;28;20373;-80
2021/07/11 11:59:32;;;;;;;14.20;6.95;;;28.10;80.80;;;;;;5091164;28;20040;-79
2021/07/11 12:02:01;;;;;;;7.28;6.45;;;28.10;80.80;;;;;;5091048;28;20032;-80
2021/07/11 12:04:28;;;;;;;7.40;6.20;;;28.20;80.40;;;;;;5090855;28;20032;-79
2021/07/11 12:06:54;;;;;;;8.13;5.80;;;28.10;80.40;;;;;;5091237;28;20414;-79
2021/07/11 12:09:25;;;;;;;7.15;5.65;;;28.20;79.80;;;;;;5091765;28;20054;-80
2021/07/11 12:12:03;;;;;;;10.75;8.00;;;28.30;79.50;;;;;;5090450;28;20093;-79
2021/07/11 12:14:30;;;;;;;8.73;5.75;;;28.30;79.30;;;;;;5090735;28;20415;-80
2021/07/11 12:17:02;;;;;;;7.72;5.32;;;28.20;78.80;;;;;;5089643;28;20028;-78
2021/07/11 12:19:28;;;;;;;6.88;5.03;;;28.30;79.10;;;;;;5090822;28;20059;-78
2021/07/11 12:21:56;;;;;;;8.10;5.60;;;28.40;78.30;;;;;;5090702;28;20024;-79
2021/07/11 12:24:24;;;;;;;6.28;5.63;;;28.60;78.70;;;;;;5091244;28;20042;-79
2021/07/11 12:27:03;;;;;;;6.00;5.15;;;28.80;78.60;;;;;;5090580;28;20035;-80
2021/07/11 12:29:31;;;;;;;8.43;5.00;;;28.80;77.90;;;;;;5090689;28;20060;-81
2021/07/11 12:31:59;;;;;;;9.77;4.88;;;29.00;78.70;;;;;;5089822;28;20362;-81
2021/07/11 12:34:25;;;;;;;8.35;5.70;;;29.00;77.40;;;;;;5090221;28;20533;-81
2021/07/11 12:36:54;;;;;;;9.02;5.35;;;28.90;77.30;;;;;;5090661;28;20024;-80
2021/07/11 12:39:22;;;;;;;6.40;4.78;;;29.00;76.90;;;;;;5092175;28;20130;-80
2021/07/11 12:41:49;;;;;;;5.50;4.82;;;28.70;76.10;;;;;;5091147;28;20032;-80
2021/07/11 12:44:17;;;;;;;6.97;5.35;;;28.70;77.20;;;;;;5090573;28;20020;-78